OAS8535 SKRG-SKBO
Flight info
| Callsign | OAS8535 |
|---|---|
| Flight time | 0h 22m |
| Altitude | 23000 |
| Route | ISVAT2B ISVAT ISVAT5E |
| Aircraft | A346/H-SDE2E3FGHIJ3J4J5M1RWXY/LB1D1 |
Departure
| Time | 2026-04-20 03:37 |
|---|---|
| Airport | Jose Maria Córdova International Airport (SKRG) |
Arrival
| Time | 2026-04-20 04:00 |
|---|---|
| Airport | El Dorado International Airport (SKBO) |
| Time | Latitude | Longitude | Altitude | Speed | Heading |
|---|---|---|---|---|---|
| 2026-04-20 03:07 | 6.17274 | -75.42711 | 7024 ft | 0 kts | 230° |
| 2026-04-20 03:27 | 6.17281 | -75.42703 | 7024 ft | 3 kts | 230° |
| 2026-04-20 03:27 | 6.17297 | -75.42684 | 7024 ft | 3 kts | 230° |
| 2026-04-20 03:27 | 6.17311 | -75.42667 | 7024 ft | 3 kts | 223° |
| 2026-04-20 03:27 | 6.17328 | -75.42656 | 7025 ft | 3 kts | 198° |
| 2026-04-20 03:28 | 6.17342 | -75.42654 | 7024 ft | 3 kts | 161° |
| 2026-04-20 03:28 | 6.17350 | -75.42660 | 7026 ft | 3 kts | 121° |
| 2026-04-20 03:28 | 6.17369 | -75.42704 | 7024 ft | 3 kts | 114° |
| 2026-04-20 03:29 | 6.17379 | -75.42723 | 7025 ft | 1 kts | 123° |
| 2026-04-20 03:29 | 6.17379 | -75.42724 | 7025 ft | 0 kts | 124° |
| 2026-04-20 03:32 | 6.17376 | -75.42719 | 7027 ft | 2 kts | 124° |
| 2026-04-20 03:32 | 6.17359 | -75.42693 | 7024 ft | 6 kts | 120° |
| 2026-04-20 03:32 | 6.17362 | -75.42644 | 7024 ft | 10 kts | 58° |
| 2026-04-20 03:32 | 6.17416 | -75.42596 | 7025 ft | 12 kts | 34° |
| 2026-04-20 03:33 | 6.17488 | -75.42546 | 7029 ft | 13 kts | 34° |
| 2026-04-20 03:33 | 6.17572 | -75.42495 | 7029 ft | 15 kts | 15° |
| 2026-04-20 03:33 | 6.17688 | -75.42491 | 7030 ft | 18 kts | 359° |
| 2026-04-20 03:33 | 6.17819 | -75.42491 | 7033 ft | 20 kts | 360° |
| 2026-04-20 03:34 | 6.17957 | -75.42495 | 7035 ft | 10 kts | 356° |
| 2026-04-20 03:34 | 6.17996 | -75.42495 | 7036 ft | 5 kts | 18° |
| 2026-04-20 03:34 | 6.18021 | -75.42451 | 7037 ft | 9 kts | 87° |
| 2026-04-20 03:34 | 6.18022 | -75.42440 | 7036 ft | 0 kts | 88° |
| 2026-04-20 03:35 | 6.18022 | -75.42438 | 7037 ft | 1 kts | 88° |
| 2026-04-20 03:35 | 6.18023 | -75.42386 | 7036 ft | 13 kts | 90° |
| 2026-04-20 03:35 | 6.18008 | -75.42338 | 7039 ft | 6 kts | 144° |
| 2026-04-20 03:35 | 6.17957 | -75.42321 | 7036 ft | 11 kts | 181° |
| 2026-04-20 03:36 | 6.17922 | -75.42322 | 7035 ft | 0 kts | 180° |
| 2026-04-20 03:36 | 6.17764 | -75.42322 | 7033 ft | 53 kts | 179° |
| 2026-04-20 03:36 | 6.17199 | -75.42318 | 7030 ft | 108 kts | 179° |
| 2026-04-20 03:36 | 6.16268 | -75.42313 | 6993 ft | 159 kts | 179° |
| 2026-04-20 03:37 | 6.15027 | -75.42310 | 7003 ft | 194 kts | 180° |
| 2026-04-20 03:37 | 6.13653 | -75.42309 | 7472 ft | 197 kts | 180° |
| 2026-04-20 03:37 | 6.12300 | -75.42316 | 8155 ft | 191 kts | 180° |
| 2026-04-20 03:37 | 6.11000 | -75.42259 | 8817 ft | 184 kts | 171° |
| 2026-04-20 03:38 | 6.09749 | -75.41940 | 9094 ft | 190 kts | 157° |
| 2026-04-20 03:38 | 6.08539 | -75.41328 | 9315 ft | 199 kts | 145° |
| 2026-04-20 03:38 | 6.07431 | -75.40443 | 9553 ft | 209 kts | 134° |
| 2026-04-20 03:38 | 6.06482 | -75.39293 | 9786 ft | 219 kts | 122° |
| 2026-04-20 03:39 | 6.05684 | -75.37933 | 10047 ft | 232 kts | 118° |
| 2026-04-20 03:39 | 6.04883 | -75.36475 | 10292 ft | 245 kts | 118° |
| 2026-04-20 03:39 | 6.04051 | -75.34958 | 10551 ft | 257 kts | 118° |
| 2026-04-20 03:39 | 6.03156 | -75.33339 | 10807 ft | 273 kts | 119° |
| 2026-04-20 03:40 | 6.02196 | -75.31620 | 11112 ft | 290 kts | 120° |
| 2026-04-20 03:40 | 6.01111 | -75.29857 | 11522 ft | 303 kts | 129° |
| 2026-04-20 03:40 | 5.99581 | -75.28384 | 12140 ft | 308 kts | 145° |
| 2026-04-20 03:40 | 5.97722 | -75.27295 | 12866 ft | 310 kts | 152° |
| 2026-04-20 03:41 | 5.95795 | -75.26293 | 13590 ft | 314 kts | 153° |
| 2026-04-20 03:41 | 5.93841 | -75.25289 | 14276 ft | 317 kts | 153° |
| 2026-04-20 03:41 | 5.91865 | -75.24266 | 14929 ft | 322 kts | 153° |
| 2026-04-20 03:41 | 5.89867 | -75.23227 | 15571 ft | 325 kts | 153° |
| 2026-04-20 03:42 | 5.87851 | -75.22173 | 16217 ft | 328 kts | 153° |
| 2026-04-20 03:42 | 5.85812 | -75.21104 | 16829 ft | 332 kts | 153° |
| 2026-04-20 03:42 | 5.83752 | -75.20023 | 17417 ft | 338 kts | 153° |
| 2026-04-20 03:42 | 5.81626 | -75.18906 | 17711 ft | 352 kts | 153° |
| 2026-04-20 03:43 | 5.79409 | -75.17743 | 17973 ft | 366 kts | 153° |
| 2026-04-20 03:43 | 5.77108 | -75.16534 | 18239 ft | 381 kts | 153° |
| 2026-04-20 03:43 | 5.74715 | -75.15278 | 18495 ft | 394 kts | 153° |
| 2026-04-20 03:43 | 5.72242 | -75.13980 | 18742 ft | 408 kts | 153° |
| 2026-04-20 03:44 | 5.69671 | -75.12675 | 18967 ft | 420 kts | 155° |
| 2026-04-20 03:44 | 5.66957 | -75.11481 | 19198 ft | 432 kts | 158° |
| 2026-04-20 03:44 | 5.64152 | -75.10320 | 19541 ft | 439 kts | 158° |
| 2026-04-20 03:44 | 5.61311 | -75.09152 | 20011 ft | 443 kts | 158° |
| 2026-04-20 03:45 | 5.58448 | -75.07977 | 20521 ft | 445 kts | 158° |
| 2026-04-20 03:45 | 5.55571 | -75.06794 | 20980 ft | 449 kts | 158° |
| 2026-04-20 03:45 | 5.52679 | -75.05604 | 21126 ft | 450 kts | 158° |
| 2026-04-20 03:45 | 5.49783 | -75.04411 | 21122 ft | 449 kts | 158° |
| 2026-04-20 03:46 | 5.46893 | -75.03220 | 21118 ft | 448 kts | 158° |
| 2026-04-20 03:46 | 5.44031 | -75.02040 | 20904 ft | 442 kts | 158° |
| 2026-04-20 03:46 | 5.41245 | -75.00892 | 20499 ft | 435 kts | 158° |
| 2026-04-20 03:46 | 5.38441 | -74.99735 | 20177 ft | 426 kts | 158° |
| 2026-04-20 03:47 | 5.35729 | -74.98600 | 19813 ft | 419 kts | 158° |
| 2026-04-20 03:47 | 5.33068 | -74.97470 | 19454 ft | 412 kts | 158° |
| 2026-04-20 03:47 | 5.30461 | -74.96359 | 18724 ft | 402 kts | 158° |
| 2026-04-20 03:47 | 5.27949 | -74.95292 | 18383 ft | 382 kts | 158° |
| 2026-04-20 03:48 | 5.25549 | -74.94273 | 18339 ft | 367 kts | 158° |
| 2026-04-20 03:48 | 5.23267 | -74.93305 | 18278 ft | 354 kts | 158° |
| 2026-04-20 03:48 | 5.21125 | -74.92163 | 18008 ft | 348 kts | 142° |
| 2026-04-20 03:48 | 5.19444 | -74.90388 | 17614 ft | 346 kts | 123° |
| 2026-04-20 03:49 | 5.18242 | -74.88345 | 17270 ft | 342 kts | 119° |
| 2026-04-20 03:49 | 5.17097 | -74.86259 | 16915 ft | 339 kts | 118° |
| 2026-04-20 03:49 | 5.15959 | -74.84197 | 16626 ft | 334 kts | 119° |
| 2026-04-20 03:49 | 5.14806 | -74.82173 | 16592 ft | 335 kts | 120° |
| 2026-04-20 03:50 | 5.13633 | -74.80152 | 16594 ft | 335 kts | 120° |
| 2026-04-20 03:50 | 5.12765 | -74.77994 | 16565 ft | 335 kts | 97° |
| 2026-04-20 03:50 | 5.12580 | -74.75666 | 16602 ft | 335 kts | 97° |
| 2026-04-20 03:50 | 5.11878 | -74.73449 | 16586 ft | 335 kts | 120° |
| 2026-04-20 03:51 | 5.10455 | -74.71604 | 16627 ft | 335 kts | 132° |
| 2026-04-20 03:51 | 5.08903 | -74.69847 | 16627 ft | 336 kts | 130° |
| 2026-04-20 03:51 | 5.07446 | -74.68010 | 16635 ft | 336 kts | 127° |
| 2026-04-20 03:51 | 5.06094 | -74.66097 | 16646 ft | 336 kts | 124° |
| 2026-04-20 03:52 | 5.04813 | -74.64135 | 16647 ft | 336 kts | 122° |
| 2026-04-20 03:52 | 5.03570 | -74.62142 | 16254 ft | 338 kts | 121° |
| 2026-04-20 03:52 | 5.02344 | -74.60124 | 15816 ft | 338 kts | 121° |
| 2026-04-20 03:52 | 5.01137 | -74.58110 | 15458 ft | 334 kts | 121° |
| 2026-04-20 03:53 | 4.99950 | -74.56120 | 15116 ft | 331 kts | 121° |
| 2026-04-20 03:53 | 4.98777 | -74.54148 | 14801 ft | 327 kts | 121° |
| 2026-04-20 03:53 | 4.97619 | -74.52200 | 14475 ft | 323 kts | 120° |
| 2026-04-20 03:53 | 4.96475 | -74.50274 | 14158 ft | 319 kts | 120° |
| 2026-04-20 03:54 | 4.95344 | -74.48371 | 13848 ft | 315 kts | 120° |
| 2026-04-20 03:54 | 4.94225 | -74.46489 | 13543 ft | 312 kts | 120° |
| 2026-04-20 03:54 | 4.93121 | -74.44630 | 13239 ft | 308 kts | 120° |
| 2026-04-20 03:54 | 4.92013 | -74.42801 | 12934 ft | 305 kts | 124° |
| 2026-04-20 03:55 | 4.90662 | -74.41133 | 12836 ft | 311 kts | 134° |
| 2026-04-20 03:55 | 4.89040 | -74.39650 | 12840 ft | 313 kts | 140° |
| 2026-04-20 03:55 | 4.87406 | -74.38206 | 12848 ft | 313 kts | 135° |
| 2026-04-20 03:55 | 4.85947 | -74.36601 | 12856 ft | 306 kts | 129° |
| 2026-04-20 03:56 | 4.84635 | -74.34968 | 12688 ft | 297 kts | 127° |
| 2026-04-20 03:56 | 4.83382 | -74.33328 | 12307 ft | 296 kts | 126° |
| 2026-04-20 03:56 | 4.82142 | -74.31672 | 11919 ft | 296 kts | 126° |
| 2026-04-20 03:56 | 4.80908 | -74.30022 | 11524 ft | 296 kts | 126° |
| 2026-04-20 03:57 | 4.79671 | -74.28374 | 11137 ft | 295 kts | 127° |
| 2026-04-20 03:57 | 4.78437 | -74.26733 | 10747 ft | 294 kts | 127° |
| 2026-04-20 03:57 | 4.77230 | -74.25129 | 10320 ft | 279 kts | 127° |
| 2026-04-20 03:57 | 4.76105 | -74.23635 | 9984 ft | 258 kts | 127° |
| 2026-04-20 03:58 | 4.75063 | -74.22249 | 9672 ft | 240 kts | 127° |
| 2026-04-20 03:58 | 4.74098 | -74.20966 | 9361 ft | 226 kts | 127° |
| 2026-04-20 03:58 | 4.73184 | -74.19753 | 9076 ft | 210 kts | 127° |
| 2026-04-20 03:58 | 4.72336 | -74.18625 | 8806 ft | 196 kts | 127° |
| 2026-04-20 03:59 | 4.71543 | -74.17567 | 8546 ft | 186 kts | 127° |
| 2026-04-20 03:59 | 4.70771 | -74.16538 | 8386 ft | 181 kts | 127° |
| 2026-04-20 03:59 | 4.70157 | -74.15732 | 8381 ft | 103 kts | 126° |
| 2026-04-20 03:59 | 4.69865 | -74.15343 | 8381 ft | 55 kts | 127° |
| 2026-04-20 04:00 | 4.69754 | -74.15172 | 8380 ft | 23 kts | 109° |
| 2026-04-20 04:00 | 4.69722 | -74.15033 | 8381 ft | 0 kts | 97° |
| 2026-04-20 04:00 | 4.69720 | -74.15012 | 8381 ft | 9 kts | 93° |
| 2026-04-20 04:00 | 4.69734 | -74.14947 | 8381 ft | 10 kts | 60° |
| 2026-04-20 04:01 | 4.69789 | -74.14895 | 8380 ft | 12 kts | 37° |
| 2026-04-20 04:01 | 4.69855 | -74.14844 | 8380 ft | 12 kts | 37° |
| 2026-04-20 04:01 | 4.69921 | -74.14794 | 8381 ft | 12 kts | 37° |
| 2026-04-20 04:01 | 4.69989 | -74.14742 | 8379 ft | 13 kts | 37° |
| 2026-04-20 04:02 | 4.70061 | -74.14688 | 8381 ft | 13 kts | 37° |
| 2026-04-20 04:02 | 4.70090 | -74.14614 | 8381 ft | 13 kts | 108° |
| 2026-04-20 04:02 | 4.70050 | -74.14552 | 8381 ft | 8 kts | 135° |
| 2026-04-20 04:02 | 4.70008 | -74.14539 | 8380 ft | 6 kts | 181° |
| 2026-04-20 04:03 | 4.69964 | -74.14543 | 8381 ft | 5 kts | 186° |
| 2026-04-20 04:03 | 4.69955 | -74.14544 | 8381 ft | 0 kts | 186° |
| 2026-04-20 04:03 | 4.69952 | -74.14544 | 8381 ft | 0 kts | 186° |